Time;durP1;ratioP1;P1;durP2;ratioP2;P2;SDS_P1;SDS_P2;PMS_P1;PMS_P2;Temp;Humidity;BMP_temperature;BMP_pressure;BME280_temperature;BME280_humidity;BME280_pressure;Samples;Min_cycle;Max_cycle;Signal;HPM_P1;HPM_P2
2022/01/23 00:00:05;;;;;;;9.32;3.60;;;;;;;;;;4999215;28;20041;-88
2022/01/23 00:02:33;;;;;;;9.45;3.72;;;;;;;;;;4999877;28;20374;-88
2022/01/23 00:05:06;;;;;;;12.35;3.78;;;;;;;;;;5000123;28;20045;-88
2022/01/23 00:07:33;;;;;;;9.55;3.60;;;;;;;;;;5000225;28;20049;-88
2022/01/23 00:09:59;;;;;;;7.40;3.45;;;;;;;;;;5016163;28;20447;-87
2022/01/23 00:12:27;;;;;;;9.43;3.70;;;;;;;;;;5015960;28;20041;-88
2022/01/23 00:17:38;;;;;;;13.15;4.18;;;;;;;;;;5016000;28;20544;-88
2022/01/23 00:20:06;;;;;;;12.35;4.28;;;;;;;;;;5033562;28;20068;-88
2022/01/23 00:22:45;;;;;;;9.90;3.63;;;;;;;;;;5015757;28;20076;-88
2022/01/23 00:30:42;;;;;;;10.82;4.47;;;;;;;;;;5015993;28;20049;-87
2022/01/23 00:33:09;;;;;;;8.43;3.97;;;;;;;;;;5015457;28;20049;-89
2022/01/23 00:35:36;;;;;;;9.75;4.10;;;;;;;;;;5015646;28;20041;-89
2022/01/23 00:38:03;;;;;;;9.02;3.42;;;;;;;;;;5015720;28;20135;-88
2022/01/23 00:40:30;;;;;;;8.48;3.80;;;;;;;;;;4999076;28;20041;-88
2022/01/23 00:42:58;;;;;;;10.77;4.18;;;;;;;;;;5015199;28;20068;-88
2022/01/23 00:45:29;;;;;;;8.52;3.75;;;;;;;;;;4999435;28;20041;-88
2022/01/23 00:48:00;;;;;;;11.25;3.88;;;;;;;;;;4999436;28;20267;-88
2022/01/23 00:50:27;;;;;;;9.88;4.20;;;;;;;;;;5015643;28;20056;-88
2022/01/23 00:52:53;;;;;;;9.50;3.72;;;;;;;;;;5015286;28;20041;-88
2022/01/23 00:55:19;;;;;;;8.90;4.25;;;;;;;;;;5015271;28;20041;-88
2022/01/23 00:57:45;;;;;;;8.90;4.03;;;;;;;;;;5015377;28;20041;-88
2022/01/23 01:00:11;;;;;;;12.68;4.47;;;;;;;;;;4998753;28;20445;-88
2022/01/23 01:02:37;;;;;;;9.32;3.80;;;;;;;;;;5014862;28;20049;-89
2022/01/23 01:05:04;;;;;;;8.85;3.83;;;;;;;;;;5015247;28;20037;-89
2022/01/23 01:07:30;;;;;;;8.82;4.00;;;;;;;;;;5014852;28;20485;-89
2022/01/23 01:10:00;;;;;;;9.60;4.00;;;;;;;;;;5015129;28;20047;-88
2022/01/23 01:12:36;;;;;;;10.85;4.55;;;;;;;;;;5014983;28;20045;-88
2022/01/23 01:31:45;;;;;;;9.23;3.65;;;;;;;;;;5015363;28;20716;-89
2022/01/23 01:34:36;;;;;;;6.18;3.28;;;;;;;;;;5014812;28;20029;-89
2022/01/23 01:37:04;;;;;;;11.05;4.15;;;;;;;;;;4998732;28;20037;-89
2022/01/23 01:39:30;;;;;;;11.27;3.60;;;;;;;;;;5014939;28;20045;-88
2022/01/23 01:41:57;;;;;;;7.38;3.33;;;;;;;;;;5011144;28;20058;-88
2022/01/23 01:44:23;;;;;;;11.05;4.22;;;;;;;;;;5011489;28;20171;-88
2022/01/23 01:46:49;;;;;;;7.28;3.65;;;;;;;;;;5011857;28;20481;-89
2022/01/23 01:49:25;;;;;;;7.82;3.50;;;;;;;;;;5011258;28;20053;-88
2022/01/23 01:51:52;;;;;;;10.30;3.55;;;;;;;;;;4995301;28;20127;-88
2022/01/23 01:54:20;;;;;;;9.18;3.55;;;;;;;;;;5011179;28;20041;-87
2022/01/23 01:57:05;;;;;;;14.35;3.80;;;;;;;;;;5011262;28;20041;-89
2022/01/23 02:10:47;;;;;;;7.18;3.75;;;;;;;;;;4978867;28;20136;-88
2022/01/23 02:13:15;;;;;;;12.10;3.92;;;;;;;;;;4995037;28;20048;-88
2022/01/23 02:18:29;;;;;;;8.43;3.78;;;;;;;;;;5011194;28;20053;-88
2022/01/23 02:51:54;;;;;;;10.23;4.22;;;;;;;;;;5014429;28;20041;-88
2022/01/23 02:57:06;;;;;;;11.20;3.70;;;;;;;;;;5014206;28;20133;-88
2022/01/23 02:59:36;;;;;;;11.63;4.20;;;;;;;;;;4997844;28;20052;-87
2022/01/23 03:02:26;;;;;;;10.15;3.80;;;;;;;;;;5014418;28;20050;-87
2022/01/23 03:04:59;;;;;;;10.68;4.10;;;;;;;;;;4997481;28;20042;-87
2022/01/23 03:24:14;;;;;;;11.43;4.20;;;;;;;;;;5013471;28;20209;-88
2022/01/23 03:31:56;;;;;;;10.00;4.22;;;;;;;;;;5015098;28;20042;-87
2022/01/23 03:34:25;;;;;;;14.60;4.22;;;;;;;;;;4996003;28;20046;-87
2022/01/23 03:36:51;;;;;;;9.85;4.03;;;;;;;;;;4997164;28;20045;-87
2022/01/23 03:39:18;;;;;;;11.32;4.22;;;;;;;;;;5013533;28;20050;-88
2022/01/23 03:41:44;;;;;;;11.07;4.25;;;;;;;;;;4996888;28;20115;-87
2022/01/23 03:44:11;;;;;;;10.30;3.72;;;;;;;;;;5013103;28;20493;-88
2022/01/23 03:47:12;;;;;;;10.60;4.20;;;;;;;;;;5013255;28;20493;-89
2022/01/23 03:49:36;;;;;;;9.05;3.97;;;;;;;;;;5014222;28;20084;-87
2022/01/23 03:52:02;;;;;;;9.15;4.00;;;;;;;;;;5013214;28;20042;-88
2022/01/23 03:54:31;;;;;;;13.73;3.72;;;;;;;;;;5012896;28;20041;-87
2022/01/23 03:56:58;;;;;;;8.13;3.30;;;;;;;;;;5013067;28;20489;-88
2022/01/23 03:59:24;;;;;;;6.32;3.42;;;;;;;;;;5012969;28;20052;-87
2022/01/23 04:01:50;;;;;;;9.10;3.05;;;;;;;;;;5013046;28;20054;-87
2022/01/23 04:04:36;;;;;;;9.60;3.35;;;;;;;;;;4996334;28;20477;-88
2022/01/23 04:07:03;;;;;;;10.18;3.70;;;;;;;;;;4996694;28;20069;-87
2022/01/23 04:09:29;;;;;;;10.73;3.72;;;;;;;;;;5012759;28;20536;-87
2022/01/23 04:11:55;;;;;;;9.95;3.70;;;;;;;;;;5012857;28;20134;-87
2022/01/23 04:14:23;;;;;;;6.00;3.30;;;;;;;;;;5012846;28;20489;-87
2022/01/23 04:19:32;;;;;;;9.60;3.65;;;;;;;;;;5012574;28;20447;-88
2022/01/23 04:33:17;;;;;;;10.07;4.18;;;;;;;;;;5013661;28;20042;-87
2022/01/23 04:47:29;;;;;;;8.27;3.38;;;;;;;;;;5015852;28;20049;-87
2022/01/23 05:00:47;;;;;;;7.45;3.58;;;;;;;;;;5015185;28;20078;-88
2022/01/23 05:05:42;;;;;;;9.80;3.55;;;;;;;;;;5017313;28;20168;-88
2022/01/23 05:08:16;;;;;;;8.18;3.47;;;;;;;;;;5015382;28;20484;-87
2022/01/23 05:10:42;;;;;;;7.35;3.80;;;;;;;;;;4998775;28;20041;-87
2022/01/23 05:13:08;;;;;;;9.50;4.15;;;;;;;;;;5015122;28;20041;-87
2022/01/23 05:15:35;;;;;;;8.27;3.95;;;;;;;;;;5032973;28;20370;-87
2022/01/23 05:18:01;;;;;;;11.45;4.07;;;;;;;;;;5015109;28;20045;-87
2022/01/23 05:20:28;;;;;;;8.98;3.97;;;;;;;;;;5014847;28;20408;-87
2022/01/23 05:23:01;;;;;;;8.68;3.72;;;;;;;;;;4998826;28;20063;-88
2022/01/23 05:25:28;;;;;;;11.45;3.90;;;;;;;;;;4998909;28;20363;-88
2022/01/23 05:27:54;;;;;;;8.38;3.80;;;;;;;;;;5032766;28;20045;-87
2022/01/23 05:30:20;;;;;;;9.85;4.10;;;;;;;;;;5014718;28;20049;-87
2022/01/23 05:32:47;;;;;;;9.60;4.13;;;;;;;;;;5014966;28;20040;-86
2022/01/23 05:35:14;;;;;;;9.68;3.40;;;;;;;;;;4998703;28;20568;-87
2022/01/23 05:37:40;;;;;;;7.78;3.50;;;;;;;;;;4997574;28;20041;-86
2022/01/23 05:40:09;;;;;;;10.50;3.90;;;;;;;;;;4978946;28;20061;-87
2022/01/23 05:42:35;;;;;;;10.25;3.60;;;;;;;;;;4995129;28;20062;-87
2022/01/23 05:45:01;;;;;;;9.63;4.00;;;;;;;;;;4995084;28;20054;-87
2022/01/23 05:47:27;;;;;;;8.32;3.95;;;;;;;;;;4995276;28;20404;-87
2022/01/23 05:49:53;;;;;;;8.35;3.67;;;;;;;;;;4994976;28;20205;-87
2022/01/23 05:52:19;;;;;;;9.23;4.30;;;;;;;;;;4995130;28;20232;-88
2022/01/23 05:54:45;;;;;;;9.07;4.03;;;;;;;;;;4995027;28;20197;-88
2022/01/23 05:57:11;;;;;;;7.93;3.63;;;;;;;;;;4995212;28;20041;-87
2022/01/23 05:59:37;;;;;;;8.82;3.45;;;;;;;;;;4982373;28;20042;-87
2022/01/23 06:02:03;;;;;;;9.20;3.80;;;;;;;;;;4999011;28;20107;-87
2022/01/23 06:04:29;;;;;;;9.75;3.92;;;;;;;;;;4982365;28;20089;-84
2022/01/23 06:06:56;;;;;;;10.77;3.13;;;;;;;;;;4998804;28;20053;-89
2022/01/23 06:09:22;;;;;;;7.35;3.25;;;;;;;;;;5016286;28;20504;-87
2022/01/23 06:11:49;;;;;;;7.55;3.40;;;;;;;;;;4998430;28;20456;-87
2022/01/23 06:14:15;;;;;;;9.32;3.88;;;;;;;;;;4998786;28;20053;-87
2022/01/23 06:16:41;;;;;;;7.65;3.33;;;;;;;;;;4998534;28;20073;-88
2022/01/23 06:19:07;;;;;;;7.55;4.00;;;;;;;;;;4998611;28;20132;-86
2022/01/23 06:21:33;;;;;;;8.27;4.00;;;;;;;;;;5016634;28;20128;-87
2022/01/23 06:24:09;;;;;;;9.80;3.88;;;;;;;;;;5017431;28;20084;-89
2022/01/23 06:26:35;;;;;;;;;;;;;;;;;;5020146;28;20045;-88
2022/01/23 06:29:02;;;;;;;7.43;3.45;;;;;;;;;;5034031;28;20058;-90
2022/01/23 06:31:28;;;;;;;12.45;4.68;;;;;;;;;;5017508;28;20473;-89
2022/01/23 06:33:54;;;;;;;9.45;4.65;;;;;;;;;;5033921;28;20040;-88
2022/01/23 06:36:20;;;;;;;8.73;3.95;;;;;;;;;;5017439;28;20444;-89
2022/01/23 06:38:46;;;;;;;8.20;3.80;;;;;;;;;;5034073;28;20049;-88
2022/01/23 06:41:13;;;;;;;9.57;3.95;;;;;;;;;;5021003;28;20132;-89
2022/01/23 06:43:39;;;;;;;7.57;3.88;;;;;;;;;;5017600;28;20053;-89
2022/01/23 06:46:05;;;;;;;8.90;4.35;;;;;;;;;;5017052;28;20448;-88
2022/01/23 06:48:31;;;;;;;7.85;4.00;;;;;;;;;;5016938;28;20041;-89
2022/01/23 06:50:57;;;;;;;10.65;3.97;;;;;;;;;;5016985;28;20132;-89
2022/01/23 06:53:23;;;;;;;9.50;4.32;;;;;;;;;;5017016;28;20051;-88
2022/01/23 06:55:49;;;;;;;10.02;4.93;;;;;;;;;;5017030;28;20037;-89
2022/01/23 06:58:15;;;;;;;9.55;4.18;;;;;;;;;;5017483;28;20041;-89
2022/01/23 07:00:41;;;;;;;9.18;4.50;;;;;;;;;;5016672;28;20122;-89
2022/01/23 07:03:07;;;;;;;7.95;4.00;;;;;;;;;;5017009;28;20045;-89
2022/01/23 07:05:33;;;;;;;8.48;4.05;;;;;;;;;;5016641;28;20110;-88
2022/01/23 07:07:59;;;;;;;9.40;4.05;;;;;;;;;;5021224;28;20037;-89
2022/01/23 07:10:25;;;;;;;9.55;3.88;;;;;;;;;;5032890;28;20100;-88
2022/01/23 07:12:51;;;;;;;8.52;3.92;;;;;;;;;;5033428;28;20133;-88
2022/01/23 07:15:17;;;;;;;9.25;4.10;;;;;;;;;;5033353;28;20394;-88
2022/01/23 07:17:43;;;;;;;8.77;3.75;;;;;;;;;;5033384;28;20052;-89
2022/01/23 07:20:10;;;;;;;8.60;4.35;;;;;;;;;;5033417;28;20049;-90
2022/01/23 07:22:36;;;;;;;8.73;4.50;;;;;;;;;;5016684;28;20045;-89
2022/01/23 07:25:03;;;;;;;10.02;4.45;;;;;;;;;;5016742;28;20042;-89
2022/01/23 07:27:35;;;;;;;8.05;3.90;;;;;;;;;;5000155;28;20072;-89
2022/01/23 07:30:01;;;;;;;8.32;4.05;;;;;;;;;;5000024;28;20068;-89
2022/01/23 07:32:27;;;;;;;8.73;4.55;;;;;;;;;;5000008;28;20037;-89
2022/01/23 07:34:54;;;;;;;8.90;4.20;;;;;;;;;;5000186;28;20076;-88
2022/01/23 07:37:20;;;;;;;9.25;4.18;;;;;;;;;;5016297;28;20034;-89
2022/01/23 07:39:46;;;;;;;8.30;3.97;;;;;;;;;;5000042;28;20045;-89
2022/01/23 07:42:12;;;;;;;7.95;3.72;;;;;;;;;;5020504;28;20061;-88
2022/01/23 07:44:38;;;;;;;8.40;4.32;;;;;;;;;;5016162;28;20408;-88
2022/01/23 07:47:04;;;;;;;6.97;4.00;;;;;;;;;;5033512;28;20046;-89
2022/01/23 07:49:30;;;;;;;10.13;4.50;;;;;;;;;;5032497;28;20076;-88
2022/01/23 07:51:57;;;;;;;9.50;4.68;;;;;;;;;;5032585;28;20041;-89
2022/01/23 07:54:23;;;;;;;9.95;4.22;;;;;;;;;;5032504;28;20045;-88
2022/01/23 07:56:49;;;;;;;7.70;3.90;;;;;;;;;;5016659;28;20083;-88
2022/01/23 07:59:15;;;;;;;7.18;4.00;;;;;;;;;;5015703;28;20049;-89
2022/01/23 08:01:41;;;;;;;8.25;4.40;;;;;;;;;;4999377;28;20052;-89
2022/01/23 08:04:07;;;;;;;7.88;4.47;;;;;;;;;;5015757;28;20055;-89
2022/01/23 08:06:40;;;;;;;10.30;4.45;;;;;;;;;;5016173;28;20496;-87
2022/01/23 08:09:06;;;;;;;8.63;4.07;;;;;;;;;;5016280;28;20056;-90
2022/01/23 08:11:32;;;;;;;9.23;4.65;;;;;;;;;;4995045;28;20068;-88
2022/01/23 08:13:58;;;;;;;9.70;4.45;;;;;;;;;;4999959;28;20080;-88
2022/01/23 08:16:24;;;;;;;9.02;3.78;;;;;;;;;;5016094;28;20045;-88
2022/01/23 08:18:49;;;;;;;7.15;3.70;;;;;;;;;;5016020;28;20522;-87
2022/01/23 08:21:15;;;;;;;7.18;3.80;;;;;;;;;;5015474;28;20049;-87
2022/01/23 08:23:41;;;;;;;8.63;4.13;;;;;;;;;;5015956;28;20119;-87
2022/01/23 08:26:08;;;;;;;7.07;3.13;;;;;;;;;;5015644;28;20563;-87
2022/01/23 08:28:34;;;;;;;6.90;3.40;;;;;;;;;;5015877;28;20041;-87
2022/01/23 08:31:00;;;;;;;7.90;3.40;;;;;;;;;;5015723;28;20068;-87
2022/01/23 08:33:27;;;;;;;6.18;2.97;;;;;;;;;;5015704;28;20041;-87
2022/01/23 08:35:56;;;;;;;8.07;3.50;;;;;;;;;;5015792;28;20041;-87
2022/01/23 08:38:23;;;;;;;6.53;3.50;;;;;;;;;;4998680;28;20041;-87
2022/01/23 08:41:49;;;;;;;9.45;3.88;;;;;;;;;;4999113;28;20038;-88
2022/01/23 08:43:35;;;;;;;;;;;;;;;;;;5016007;28;20128;-87
2022/01/23 08:46:01;;;;;;;6.40;3.40;;;;;;;;;;5033275;28;20368;-87
2022/01/23 08:48:27;;;;;;;7.32;3.08;;;;;;;;;;5015245;28;20121;-87
2022/01/23 08:50:53;;;;;;;7.43;3.85;;;;;;;;;;5015512;28;20041;-88
2022/01/23 08:53:19;;;;;;;6.38;3.53;;;;;;;;;;5015394;28;20079;-88
2022/01/23 08:55:44;;;;;;;6.65;3.53;;;;;;;;;;4999357;28;20045;-88
2022/01/23 08:58:11;;;;;;;8.10;3.17;;;;;;;;;;5015162;28;20472;-88
2022/01/23 09:00:37;;;;;;;6.65;3.35;;;;;;;;;;5016889;28;20454;-88
2022/01/23 09:03:03;;;;;;;6.57;3.10;;;;;;;;;;5015200;28;20125;-88
2022/01/23 09:05:29;;;;;;;6.35;3.28;;;;;;;;;;5015422;28;20049;-87
2022/01/23 09:07:56;;;;;;;6.63;3.08;;;;;;;;;;5015043;28;20041;-88
2022/01/23 09:10:27;;;;;;;6.25;2.70;;;;;;;;;;5016613;28;20055;-88
2022/01/23 09:13:05;;;;;;;6.82;2.42;;;;;;;;;;4998817;28;20076;-88
2022/01/23 09:15:31;;;;;;;5.63;2.60;;;;;;;;;;5015168;28;20392;-88
2022/01/23 09:17:57;;;;;;;6.60;2.78;;;;;;;;;;5016158;28;20037;-89
2022/01/23 09:20:23;;;;;;;4.68;1.83;;;;;;;;;;5015066;28;20047;-88
2022/01/23 09:22:49;;;;;;;5.00;1.83;;;;;;;;;;5014699;28;20079;-88
2022/01/23 09:25:15;;;;;;;4.47;1.60;;;;;;;;;;5015191;28;20124;-88
2022/01/23 09:27:41;;;;;;;7.10;1.80;;;;;;;;;;4998692;28;20045;-89
2022/01/23 09:30:17;;;;;;;4.55;1.40;;;;;;;;;;5015048;28;20064;-88
2022/01/23 09:32:43;;;;;;;6.82;1.70;;;;;;;;;;5015308;28;20091;-88
2022/01/23 09:35:09;;;;;;;4.95;1.98;;;;;;;;;;5018981;28;20041;-88
2022/01/23 09:37:35;;;;;;;3.53;1.45;;;;;;;;;;5018946;28;20116;-88
2022/01/23 09:40:01;;;;;;;4.50;1.95;;;;;;;;;;5019185;28;20137;-88
2022/01/23 09:42:29;;;;;;;5.72;2.28;;;;;;;;;;5018513;28;20088;-89
2022/01/23 09:44:58;;;;;;;3.95;1.75;;;;;;;;;;5018951;28;20079;-88
2022/01/23 09:47:24;;;;;;;3.45;1.27;;;;;;;;;;5018580;28;20086;-90
2022/01/23 09:49:51;;;;;;;3.88;1.30;;;;;;;;;;5018935;28;20441;-88
2022/01/23 09:52:18;;;;;;;4.72;1.60;;;;;;;;;;5018483;28;20191;-88
2022/01/23 09:54:46;;;;;;;3.20;1.33;;;;;;;;;;5018770;28;20408;-90
2022/01/23 09:57:12;;;;;;;4.80;1.38;;;;;;;;;;5002542;28;20124;-88
2022/01/23 09:59:40;;;;;;;3.92;1.33;;;;;;;;;;5002274;28;20041;-89
2022/01/23 10:02:08;;;;;;;5.40;1.77;;;;;;;;;;5018744;28;20376;-89
2022/01/23 10:04:34;;;;;;;5.35;2.00;;;;;;;;;;5002201;28;20045;-88
2022/01/23 10:07:01;;;;;;;4.78;1.80;;;;;;;;;;5018637;28;20397;-89
2022/01/23 10:09:28;;;;;;;5.43;1.83;;;;;;;;;;5018780;28;20085;-89
2022/01/23 10:11:54;;;;;;;6.07;1.98;;;;;;;;;;5019567;28;20202;-91
2022/01/23 10:14:20;;;;;;;4.85;1.75;;;;;;;;;;5018446;28;20136;-89
2022/01/23 10:16:50;;;;;;;4.53;1.90;;;;;;;;;;5018303;28;20116;-89
2022/01/23 10:19:17;;;;;;;5.68;2.13;;;;;;;;;;5001698;28;20052;-89
2022/01/23 10:21:44;;;;;;;5.28;2.10;;;;;;;;;;5018485;28;20049;-88
2022/01/23 10:24:10;;;;;;;4.60;2.30;;;;;;;;;;5018118;28;20041;-88
2022/01/23 10:26:49;;;;;;;5.05;2.30;;;;;;;;;;5001963;28;20136;-88
2022/01/23 10:29:21;;;;;;;5.72;2.40;;;;;;;;;;5001357;28;20041;-89
2022/01/23 10:32:08;;;;;;;4.95;2.30;;;;;;;;;;5018108;28;20433;-88
2022/01/23 10:34:54;;;;;;;5.40;2.30;;;;;;;;;;5001423;28;20392;-88
2022/01/23 10:37:34;;;;;;;5.43;2.35;;;;;;;;;;5001544;28;20044;-88
2022/01/23 10:40:05;;;;;;;5.78;2.85;;;;;;;;;;5017885;28;20088;-88
2022/01/23 10:42:51;;;;;;;5.30;2.47;;;;;;;;;;5017489;28;20070;-89
2022/01/23 10:48:25;;;;;;;5.60;2.55;;;;;;;;;;5017544;28;20045;-89
2022/01/23 10:50:51;;;;;;;5.80;2.10;;;;;;;;;;5017958;28;20045;-88
2022/01/23 10:53:20;;;;;;;5.57;2.53;;;;;;;;;;5017463;28;20045;-89
2022/01/23 10:55:47;;;;;;;5.05;1.80;;;;;;;;;;5017651;28;20037;-88
2022/01/23 10:58:20;;;;;;;4.28;1.90;;;;;;;;;;5000942;28;20224;-88
2022/01/23 11:00:46;;;;;;;4.47;1.75;;;;;;;;;;5017492;28;20479;-88
2022/01/23 11:03:20;;;;;;;5.25;1.65;;;;;;;;;;5017162;28;20073;-89
2022/01/23 11:05:48;;;;;;;5.07;2.00;;;;;;;;;;5017619;28;20048;-89
2022/01/23 11:08:21;;;;;;;4.53;1.90;;;;;;;;;;5017156;28;20045;-89
2022/01/23 11:10:54;;;;;;;2.75;1.05;;;;;;;;;;5017261;28;20042;-88
2022/01/23 11:19:16;;;;;;;3.90;1.33;;;;;;;;;;5016953;28;20049;-89
2022/01/23 11:21:42;;;;;;;4.93;1.38;;;;;;;;;;5017165;28;20041;-88
2022/01/23 11:24:09;;;;;;;3.70;1.48;;;;;;;;;;5000407;28;20500;-88
2022/01/23 11:26:34;;;;;;;3.55;1.30;;;;;;;;;;5018392;28;20476;-87
2022/01/23 11:29:10;;;;;;;0.82;0.30;;;;;;;;;;5016751;28;20038;-88
2022/01/23 11:31:38;;;;;;;1.73;0.35;;;;;;;;;;5017268;28;20037;-88
2022/01/23 11:34:06;;;;;;;0.70;0.20;;;;;;;;;;5016577;28;20037;-88
2022/01/23 11:36:32;;;;;;;1.13;0.15;;;;;;;;;;5017166;28;20383;-88
2022/01/23 11:39:06;;;;;;;1.13;0.30;;;;;;;;;;5000229;28;20128;-89
2022/01/23 11:55:38;;;;;;;1.17;0.30;;;;;;;;;;4956409;28;20133;-88
2022/01/23 11:58:05;;;;;;;2.42;0.45;;;;;;;;;;4992999;28;20048;-88
2022/01/23 12:00:32;;;;;;;1.08;0.38;;;;;;;;;;5000090;28;20502;-89
2022/01/23 12:03:11;;;;;;;1.75;0.10;;;;;;;;;;5016413;28;20037;-89
2022/01/23 12:05:39;;;;;;;1.75;0.13;;;;;;;;;;5016520;28;20528;-88
2022/01/23 12:08:23;;;;;;;0.40;0.10;;;;;;;;;;4999813;28;20049;-88
2022/01/23 12:11:25;;;;;;;0.52;0.10;;;;;;;;;;4999872;28;20128;-88
2022/01/23 12:17:10;;;;;;;2.83;0.57;;;;;;;;;;5016296;28;20503;-89
2022/01/23 12:19:54;;;;;;;2.63;0.40;;;;;;;;;;4991748;28;20436;-88
2022/01/23 12:22:25;;;;;;;1.58;0.40;;;;;;;;;;5015905;28;20047;-88
2022/01/23 12:24:52;;;;;;;1.50;0.40;;;;;;;;;;5015832;28;20614;-88
2022/01/23 12:27:28;;;;;;;1.52;0.47;;;;;;;;;;5015925;28;20076;-89
2022/01/23 12:29:57;;;;;;;2.05;0.40;;;;;;;;;;5015329;28;20037;-89
2022/01/23 12:32:30;;;;;;;1.45;0.32;;;;;;;;;;4999625;28;20034;-89
2022/01/23 12:35:00;;;;;;;1.08;0.35;;;;;;;;;;5015469;28;20048;-87
2022/01/23 12:37:27;;;;;;;2.47;0.47;;;;;;;;;;5016681;28;20033;-89
2022/01/23 12:40:12;;;;;;;1.13;0.40;;;;;;;;;;5015451;28;20037;-88
2022/01/23 12:42:56;;;;;;;1.33;0.35;;;;;;;;;;5015272;28;20068;-88
2022/01/23 12:45:52;;;;;;;1.45;0.50;;;;;;;;;;5015286;28;20488;-88
2022/01/23 12:48:31;;;;;;;2.27;0.37;;;;;;;;;;5003019;28;20132;-88
2022/01/23 12:51:02;;;;;;;1.55;0.40;;;;;;;;;;4998794;28;20538;-88
2022/01/23 12:53:41;;;;;;;1.48;0.43;;;;;;;;;;4999045;28;20045;-89
2022/01/23 12:56:08;;;;;;;2.58;0.60;;;;;;;;;;5015421;28;20041;-88
2022/01/23 12:58:34;;;;;;;2.20;0.45;;;;;;;;;;4999271;28;20040;-88
2022/01/23 13:01:01;;;;;;;0.93;0.30;;;;;;;;;;4998714;28;20041;-89
2022/01/23 13:03:28;;;;;;;1.67;0.50;;;;;;;;;;5015108;28;20038;-88
2022/01/23 13:05:54;;;;;;;0.60;0.30;;;;;;;;;;5015333;28;20045;-89
2022/01/23 13:08:25;;;;;;;3.10;0.47;;;;;;;;;;5015275;28;20084;-89
2022/01/23 13:11:08;;;;;;;1.67;0.40;;;;;;;;;;5014920;28;20045;-88
2022/01/23 13:13:38;;;;;;;2.00;0.52;;;;;;;;;;4998663;28;20067;-88
2022/01/23 13:18:48;;;;;;;6.05;0.90;;;;;;;;;;5015329;28;20052;-88
2022/01/23 13:32:13;;;;;;;3.08;0.90;;;;;;;;;;5014929;28;20046;-88
2022/01/23 13:34:55;;;;;;;2.95;0.95;;;;;;;;;;5014720;28;20056;-89
2022/01/23 13:37:23;;;;;;;3.03;0.90;;;;;;;;;;5015033;28;20042;-88
2022/01/23 13:40:01;;;;;;;3.05;1.02;;;;;;;;;;5014893;28;20216;-87
2022/01/23 13:48:32;;;;;;;3.05;1.02;;;;;;;;;;5012527;28;20046;-88
2022/01/23 14:02:22;;;;;;;3.97;1.58;;;;;;;;;;5012704;28;20046;-88
2022/01/23 14:04:51;;;;;;;6.35;1.40;;;;;;;;;;4994829;28;20048;-88
2022/01/23 14:07:27;;;;;;;5.18;1.42;;;;;;;;;;5011385;28;20516;-88
2022/01/23 14:09:55;;;;;;;3.88;1.60;;;;;;;;;;5011032;28;20121;-88
2022/01/23 14:12:21;;;;;;;4.32;1.55;;;;;;;;;;5011400;28;20030;-88
2022/01/23 14:15:00;;;;;;;3.95;1.55;;;;;;;;;;5011423;28;20211;-89
2022/01/23 14:17:28;;;;;;;6.28;1.77;;;;;;;;;;5011488;28;20042;-89
2022/01/23 14:20:09;;;;;;;4.70;1.75;;;;;;;;;;4996987;28;20077;-88
2022/01/23 14:22:37;;;;;;;5.28;1.60;;;;;;;;;;5014823;28;20045;-89
2022/01/23 14:25:09;;;;;;;5.53;1.48;;;;;;;;;;4998378;28;20464;-89
2022/01/23 14:27:35;;;;;;;3.97;1.60;;;;;;;;;;5014840;28;20116;-88
2022/01/23 14:30:07;;;;;;;4.85;1.67;;;;;;;;;;5014572;28;20038;-88
2022/01/23 14:32:42;;;;;;;3.28;1.20;;;;;;;;;;5014826;28;20042;-89
2022/01/23 14:35:09;;;;;;;4.82;1.63;;;;;;;;;;5016056;28;20041;-89
2022/01/23 14:37:35;;;;;;;5.18;1.27;;;;;;;;;;5015165;28;20504;-89
2022/01/23 14:40:08;;;;;;;4.05;1.20;;;;;;;;;;5014566;28;20405;-89
2022/01/23 14:42:34;;;;;;;3.42;1.23;;;;;;;;;;5014337;28;20058;-88
2022/01/23 14:45:03;;;;;;;3.22;1.27;;;;;;;;;;5014374;28;20045;-89
2022/01/23 14:47:34;;;;;;;3.50;1.27;;;;;;;;;;4998342;28;20046;-88
2022/01/23 14:50:02;;;;;;;4.63;1.50;;;;;;;;;;5014283;28;20213;-89
2022/01/23 14:52:28;;;;;;;3.60;1.38;;;;;;;;;;5014546;28;20049;-88
2022/01/23 14:54:56;;;;;;;5.07;1.63;;;;;;;;;;5014071;28;20038;-88
2022/01/23 14:57:23;;;;;;;3.22;1.40;;;;;;;;;;5014444;28;20049;-88
2022/01/23 14:59:49;;;;;;;2.65;1.13;;;;;;;;;;5015013;28;20042;-89
2022/01/23 15:02:16;;;;;;;4.18;1.35;;;;;;;;;;5014116;28;20121;-88
2022/01/23 15:04:43;;;;;;;3.38;1.10;;;;;;;;;;5014278;28;20048;-88
2022/01/23 15:07:14;;;;;;;4.22;1.10;;;;;;;;;;5013987;28;20053;-88
2022/01/23 15:09:40;;;;;;;3.53;1.20;;;;;;;;;;5013957;28;20046;-89
2022/01/23 15:12:07;;;;;;;3.03;1.13;;;;;;;;;;5013724;28;20117;-88
2022/01/23 15:14:33;;;;;;;3.28;1.13;;;;;;;;;;4997626;28;20038;-88
2022/01/23 15:16:59;;;;;;;3.58;1.10;;;;;;;;;;5013796;28;20045;-88
2022/01/23 15:19:25;;;;;;;2.97;1.20;;;;;;;;;;5014247;28;20048;-88
2022/01/23 15:21:51;;;;;;;6.25;1.40;;;;;;;;;;5013564;28;20045;-88
2022/01/23 15:24:17;;;;;;;3.67;1.30;;;;;;;;;;5013788;28;20095;-89
2022/01/23 15:26:43;;;;;;;3.05;0.90;;;;;;;;;;4997222;28;20130;-88
2022/01/23 15:29:09;;;;;;;3.55;1.30;;;;;;;;;;5013566;28;20038;-89
2022/01/23 15:31:38;;;;;;;3.22;1.02;;;;;;;;;;5013495;28;20038;-88
2022/01/23 15:34:04;;;;;;;5.20;1.40;;;;;;;;;;5014983;28;20042;-88
2022/01/23 15:36:30;;;;;;;3.38;1.05;;;;;;;;;;5013404;28;20045;-88
2022/01/23 15:38:57;;;;;;;4.05;1.20;;;;;;;;;;4996851;28;20416;-88
2022/01/23 15:41:23;;;;;;;4.95;1.50;;;;;;;;;;4993532;28;20085;-88
2022/01/23 15:43:49;;;;;;;4.15;1.33;;;;;;;;;;4977582;28;20042;-88
2022/01/23 15:46:15;;;;;;;2.65;1.10;;;;;;;;;;4993020;28;20046;-88
2022/01/23 15:48:41;;;;;;;6.28;1.30;;;;;;;;;;4977422;28;20038;-88
2022/01/23 15:51:07;;;;;;;4.40;1.65;;;;;;;;;;4993477;28;20043;-88
2022/01/23 15:53:33;;;;;;;2.65;1.10;;;;;;;;;;4993591;28;20038;-88
2022/01/23 15:55:59;;;;;;;3.60;1.17;;;;;;;;;;4993270;28;20062;-88
2022/01/23 15:58:28;;;;;;;4.75;1.20;;;;;;;;;;4993681;28;20047;-88
2022/01/23 16:00:54;;;;;;;3.55;1.27;;;;;;;;;;4977164;28;20066;-87
2022/01/23 16:03:20;;;;;;;4.10;1.42;;;;;;;;;;4993231;28;20049;-88
2022/01/23 16:05:46;;;;;;;6.18;1.65;;;;;;;;;;4993117;28;20104;-87
2022/01/23 16:08:13;;;;;;;3.45;1.20;;;;;;;;;;4993352;28;20046;-88
2022/01/23 16:10:39;;;;;;;3.38;1.35;;;;;;;;;;4994769;28;20047;-87
2022/01/23 16:13:05;;;;;;;6.00;1.85;;;;;;;;;;4993344;28;20524;-87
2022/01/23 16:15:31;;;;;;;5.53;1.30;;;;;;;;;;4993144;28;20039;-86
2022/01/23 16:17:57;;;;;;;3.47;1.30;;;;;;;;;;4992936;28;20038;-86
2022/01/23 16:20:23;;;;;;;3.80;1.38;;;;;;;;;;4993104;28;20206;-86
2022/01/23 16:22:49;;;;;;;4.50;1.63;;;;;;;;;;4993118;28;20045;-86
2022/01/23 16:25:18;;;;;;;4.00;1.30;;;;;;;;;;4994245;28;20047;-86
2022/01/23 16:27:44;;;;;;;3.13;0.98;;;;;;;;;;4976415;28;20101;-86
2022/01/23 16:30:10;;;;;;;3.88;1.20;;;;;;;;;;4993123;28;20042;-86
2022/01/23 16:32:37;;;;;;;4.78;1.63;;;;;;;;;;4994036;28;20085;-86
2022/01/23 16:35:03;;;;;;;4.72;1.65;;;;;;;;;;4976990;28;20121;-86
2022/01/23 16:37:29;;;;;;;7.60;1.70;;;;;;;;;;4992756;28;20042;-86
2022/01/23 16:39:55;;;;;;;4.78;1.73;;;;;;;;;;4992979;28;20548;-87
2022/01/23 16:42:21;;;;;;;4.32;1.52;;;;;;;;;;4991707;28;20452;-86
2022/01/23 16:44:48;;;;;;;4.88;1.40;;;;;;;;;;4992593;28;20050;-86
2022/01/23 16:47:14;;;;;;;4.22;1.75;;;;;;;;;;4993946;28;20100;-87
2022/01/23 16:49:41;;;;;;;3.53;1.38;;;;;;;;;;4993407;28;20509;-86
2022/01/23 16:52:09;;;;;;;3.47;1.40;;;;;;;;;;4992496;28;20121;-90
2022/01/23 16:54:36;;;;;;;3.00;1.23;;;;;;;;;;4976222;28;20049;-86
2022/01/23 16:57:02;;;;;;;4.22;1.63;;;;;;;;;;4992501;28;20050;-87
2022/01/23 16:59:29;;;;;;;3.65;1.63;;;;;;;;;;4993822;28;20053;-86
2022/01/23 17:01:55;;;;;;;3.80;1.65;;;;;;;;;;4992162;28;20125;-87
2022/01/23 17:04:21;;;;;;;6.28;1.75;;;;;;;;;;4992177;28;20508;-86
2022/01/23 17:06:47;;;;;;;4.60;1.48;;;;;;;;;;4992287;28;20042;-86
2022/01/23 17:09:14;;;;;;;5.60;1.75;;;;;;;;;;4992176;28;20125;-86
2022/01/23 17:11:40;;;;;;;3.58;1.50;;;;;;;;;;4991994;28;20053;-86
2022/01/23 17:14:06;;;;;;;4.75;1.67;;;;;;;;;;4992095;28;20572;-86
2022/01/23 17:16:32;;;;;;;4.63;1.52;;;;;;;;;;4975896;28;20500;-86
2022/01/23 17:18:58;;;;;;;5.78;1.80;;;;;;;;;;4992004;28;20058;-86
2022/01/23 17:21:24;;;;;;;4.68;1.70;;;;;;;;;;4991869;28;20050;-86
2022/01/23 17:23:53;;;;;;;4.70;1.77;;;;;;;;;;4992158;28;20486;-86
2022/01/23 17:26:20;;;;;;;3.70;1.55;;;;;;;;;;4992184;28;20046;-87
2022/01/23 17:28:47;;;;;;;3.88;1.60;;;;;;;;;;4992382;28;20069;-87
2022/01/23 17:31:13;;;;;;;4.68;1.50;;;;;;;;;;4975957;28;20069;-87
2022/01/23 17:33:39;;;;;;;5.30;1.73;;;;;;;;;;4993174;28;20038;-86
2022/01/23 17:36:05;;;;;;;4.47;1.67;;;;;;;;;;4991960;28;20100;-87
2022/01/23 17:38:32;;;;;;;4.43;1.60;;;;;;;;;;4975833;28;20189;-87
2022/01/23 17:40:58;;;;;;;5.00;1.58;;;;;;;;;;4991928;28;20050;-87
2022/01/23 17:43:25;;;;;;;3.80;1.60;;;;;;;;;;4991694;28;20061;-87
2022/01/23 17:45:52;;;;;;;3.65;1.48;;;;;;;;;;4975951;28;20429;-86
2022/01/23 17:50:48;;;;;;;5.78;1.92;;;;;;;;;;4991789;28;20129;-86
2022/01/23 17:53:14;;;;;;;4.47;1.55;;;;;;;;;;4991696;28;20042;-86
2022/01/23 17:55:41;;;;;;;3.83;1.50;;;;;;;;;;4995614;28;20129;-86
2022/01/23 17:58:07;;;;;;;4.85;1.40;;;;;;;;;;4995685;28;20057;-86
2022/01/23 18:00:33;;;;;;;4.88;1.73;;;;;;;;;;4995866;28;20105;-86
2022/01/23 18:03:00;;;;;;;4.35;1.35;;;;;;;;;;4995463;28;20080;-86